sensor_id;sensor_type;location;lat;lon;timestamp;temperature;humidity
65048;DHT22;52089;51.362;-2.384;2023-01-05T00:01:45;10.10;99.90
65048;DHT22;52089;51.362;-2.384;2023-01-05T00:05:27;10.10;99.90
65048;DHT22;52089;51.362;-2.384;2023-01-05T00:09:13;10.10;99.90
65048;DHT22;52089;51.362;-2.384;2023-01-05T00:12:55;10.10;99.90
65048;DHT22;52089;51.362;-2.384;2023-01-05T00:16:55;10.10;99.90
65048;DHT22;52089;51.362;-2.384;2023-01-05T00:20:55;10.20;99.90
65048;DHT22;52089;51.362;-2.384;2023-01-05T00:28:52;10.30;99.90
65048;DHT22;52089;51.362;-2.384;2023-01-05T00:32:34;10.30;99.90
65048;DHT22;52089;51.362;-2.384;2023-01-05T00:36:16;10.40;99.90
65048;DHT22;52089;51.362;-2.384;2023-01-05T00:39:58;10.40;99.90
65048;DHT22;52089;51.362;-2.384;2023-01-05T00:43:39;10.50;99.90
65048;DHT22;52089;51.362;-2.384;2023-01-05T00:47:21;10.50;99.90
65048;DHT22;52089;51.362;-2.384;2023-01-05T00:51:03;10.50;99.90
65048;DHT22;52089;51.362;-2.384;2023-01-05T00:54:45;10.60;99.90
65048;DHT22;52089;51.362;-2.384;2023-01-05T00:58:26;10.70;99.90
65048;DHT22;52089;51.362;-2.384;2023-01-05T01:02:09;10.70;99.90
65048;DHT22;52089;51.362;-2.384;2023-01-05T01:05:58;10.60;99.90
65048;DHT22;52089;51.362;-2.384;2023-01-05T01:09:39;10.60;99.90
65048;DHT22;52089;51.362;-2.384;2023-01-05T01:13:24;10.70;99.90
65048;DHT22;52089;51.362;-2.384;2023-01-05T01:17:06;10.60;99.90
65048;DHT22;52089;51.362;-2.384;2023-01-05T01:20:48;10.60;99.90
65048;DHT22;52089;51.362;-2.384;2023-01-05T01:24:30;10.50;99.90
65048;DHT22;52089;51.362;-2.384;2023-01-05T01:28:12;10.50;99.90
65048;DHT22;52089;51.362;-2.384;2023-01-05T01:31:54;10.40;99.90
65048;DHT22;52089;51.362;-2.384;2023-01-05T01:35:36;10.40;99.90
65048;DHT22;52089;51.362;-2.384;2023-01-05T01:39:18;10.40;99.90
65048;DHT22;52089;51.362;-2.384;2023-01-05T01:43:00;10.40;99.90
65048;DHT22;52089;51.362;-2.384;2023-01-05T01:46:42;10.40;99.90
65048;DHT22;52089;51.362;-2.384;2023-01-05T01:54:10;10.20;99.90
65048;DHT22;52089;51.362;-2.384;2023-01-05T01:57:53;10.20;99.90
65048;DHT22;52089;51.362;-2.384;2023-01-05T02:01:35;10.10;99.90
65048;DHT22;52089;51.362;-2.384;2023-01-05T02:05:20;10.10;99.90
65048;DHT22;52089;51.362;-2.384;2023-01-05T02:09:03;10.00;99.90
65048;DHT22;52089;51.362;-2.384;2023-01-05T02:20:57;9.90;99.90
65048;DHT22;52089;51.362;-2.384;2023-01-05T02:29:00;10.10;99.90
65048;DHT22;52089;51.362;-2.384;2023-01-05T02:37:01;10.20;99.90
65048;DHT22;52089;51.362;-2.384;2023-01-05T02:40:48;10.30;99.90
65048;DHT22;52089;51.362;-2.384;2023-01-05T02:44:32;10.30;99.90
65048;DHT22;52089;51.362;-2.384;2023-01-05T02:48:14;10.40;99.90
65048;DHT22;52089;51.362;-2.384;2023-01-05T02:51:57;10.40;99.90
65048;DHT22;52089;51.362;-2.384;2023-01-05T02:55:45;10.50;99.90
65048;DHT22;52089;51.362;-2.384;2023-01-05T02:59:34;10.50;99.90
65048;DHT22;52089;51.362;-2.384;2023-01-05T03:07:21;10.40;99.90
65048;DHT22;52089;51.362;-2.384;2023-01-05T03:11:07;10.50;99.90
65048;DHT22;52089;51.362;-2.384;2023-01-05T03:15:15;10.40;99.90
65048;DHT22;52089;51.362;-2.384;2023-01-05T03:19:00;10.40;99.90
65048;DHT22;52089;51.362;-2.384;2023-01-05T03:23:05;10.50;99.90
65048;DHT22;52089;51.362;-2.384;2023-01-05T03:27:07;10.60;99.90
65048;DHT22;52089;51.362;-2.384;2023-01-05T03:31:18;10.60;99.90
65048;DHT22;52089;51.362;-2.384;2023-01-05T03:35:22;10.60;99.90
65048;DHT22;52089;51.362;-2.384;2023-01-05T03:39:14;10.70;99.90
65048;DHT22;52089;51.362;-2.384;2023-01-05T03:42:57;10.70;99.90
65048;DHT22;52089;51.362;-2.384;2023-01-05T03:46:40;10.70;99.90
65048;DHT22;52089;51.362;-2.384;2023-01-05T03:50:22;10.70;99.90
65048;DHT22;52089;51.362;-2.384;2023-01-05T03:54:04;10.70;99.90
65048;DHT22;52089;51.362;-2.384;2023-01-05T03:57:45;10.70;99.90
65048;DHT22;52089;51.362;-2.384;2023-01-05T04:01:27;10.60;99.90
65048;DHT22;52089;51.362;-2.384;2023-01-05T04:05:09;10.50;99.90
65048;DHT22;52089;51.362;-2.384;2023-01-05T04:08:51;10.40;99.90
65048;DHT22;52089;51.362;-2.384;2023-01-05T04:12:33;10.40;99.90
65048;DHT22;52089;51.362;-2.384;2023-01-05T04:16:15;10.40;99.90
65048;DHT22;52089;51.362;-2.384;2023-01-05T04:19:58;10.30;99.90
65048;DHT22;52089;51.362;-2.384;2023-01-05T04:23:40;10.40;99.90
65048;DHT22;52089;51.362;-2.384;2023-01-05T04:27:21;10.40;99.90
65048;DHT22;52089;51.362;-2.384;2023-01-05T04:31:03;10.40;99.90
65048;DHT22;52089;51.362;-2.384;2023-01-05T04:34:45;10.30;99.90
65048;DHT22;52089;51.362;-2.384;2023-01-05T04:38:27;10.20;99.90
65048;DHT22;52089;51.362;-2.384;2023-01-05T04:42:09;10.20;99.90
65048;DHT22;52089;51.362;-2.384;2023-01-05T04:45:50;10.20;99.90
65048;DHT22;52089;51.362;-2.384;2023-01-05T04:49:32;10.10;99.90
65048;DHT22;52089;51.362;-2.384;2023-01-05T04:53:14;10.10;99.90
65048;DHT22;52089;51.362;-2.384;2023-01-05T04:56:56;10.00;99.90
65048;DHT22;52089;51.362;-2.384;2023-01-05T05:00:37;10.00;99.90
65048;DHT22;52089;51.362;-2.384;2023-01-05T05:04:19;10.00;99.90
65048;DHT22;52089;51.362;-2.384;2023-01-05T05:08:01;10.00;99.90
65048;DHT22;52089;51.362;-2.384;2023-01-05T05:11:43;10.00;99.90
65048;DHT22;52089;51.362;-2.384;2023-01-05T05:15:25;10.00;99.90
65048;DHT22;52089;51.362;-2.384;2023-01-05T05:19:08;10.10;99.90
65048;DHT22;52089;51.362;-2.384;2023-01-05T05:22:51;10.10;99.90
65048;DHT22;52089;51.362;-2.384;2023-01-05T05:26:32;10.10;99.90
65048;DHT22;52089;51.362;-2.384;2023-01-05T05:30:14;10.10;99.90
65048;DHT22;52089;51.362;-2.384;2023-01-05T05:33:56;10.10;99.90
65048;DHT22;52089;51.362;-2.384;2023-01-05T05:37:38;10.20;99.90
65048;DHT22;52089;51.362;-2.384;2023-01-05T05:41:20;10.20;99.90
65048;DHT22;52089;51.362;-2.384;2023-01-05T05:45:02;10.20;99.90
65048;DHT22;52089;51.362;-2.384;2023-01-05T05:48:43;10.20;99.90
65048;DHT22;52089;51.362;-2.384;2023-01-05T05:52:25;10.20;99.90
65048;DHT22;52089;51.362;-2.384;2023-01-05T05:56:07;10.20;99.90
65048;DHT22;52089;51.362;-2.384;2023-01-05T05:59:49;10.20;99.90
65048;DHT22;52089;51.362;-2.384;2023-01-05T06:03:31;10.30;99.90
65048;DHT22;52089;51.362;-2.384;2023-01-05T06:07:12;10.30;99.90
65048;DHT22;52089;51.362;-2.384;2023-01-05T06:10:55;10.30;99.90
65048;DHT22;52089;51.362;-2.384;2023-01-05T06:14:37;10.40;99.90
65048;DHT22;52089;51.362;-2.384;2023-01-05T06:18:19;10.40;99.90
65048;DHT22;52089;51.362;-2.384;2023-01-05T06:22:01;10.40;99.90
65048;DHT22;52089;51.362;-2.384;2023-01-05T06:25:42;10.40;99.90
65048;DHT22;52089;51.362;-2.384;2023-01-05T06:29:24;10.50;99.90
65048;DHT22;52089;51.362;-2.384;2023-01-05T06:33:06;10.50;99.90
65048;DHT22;52089;51.362;-2.384;2023-01-05T06:36:48;10.50;99.90
65048;DHT22;52089;51.362;-2.384;2023-01-05T06:40:30;10.50;99.90
65048;DHT22;52089;51.362;-2.384;2023-01-05T06:44:11;10.50;99.90
65048;DHT22;52089;51.362;-2.384;2023-01-05T06:47:53;10.50;99.90
65048;DHT22;52089;51.362;-2.384;2023-01-05T06:51:35;10.50;99.90
65048;DHT22;52089;51.362;-2.384;2023-01-05T06:55:17;10.50;99.90
65048;DHT22;52089;51.362;-2.384;2023-01-05T06:58:59;10.60;99.90
65048;DHT22;52089;51.362;-2.384;2023-01-05T07:02:41;10.60;99.90
65048;DHT22;52089;51.362;-2.384;2023-01-05T07:06:22;10.60;99.90
65048;DHT22;52089;51.362;-2.384;2023-01-05T07:10:05;10.70;99.90
65048;DHT22;52089;51.362;-2.384;2023-01-05T07:13:47;10.70;99.90
65048;DHT22;52089;51.362;-2.384;2023-01-05T07:17:30;10.70;99.90
65048;DHT22;52089;51.362;-2.384;2023-01-05T07:21:12;10.70;99.90
65048;DHT22;52089;51.362;-2.384;2023-01-05T07:24:53;10.70;99.90
65048;DHT22;52089;51.362;-2.384;2023-01-05T07:28:36;10.80;99.90
65048;DHT22;52089;51.362;-2.384;2023-01-05T07:32:18;10.80;99.90
65048;DHT22;52089;51.362;-2.384;2023-01-05T07:36:02;10.80;99.90
65048;DHT22;52089;51.362;-2.384;2023-01-05T07:39:44;10.80;99.90
65048;DHT22;52089;51.362;-2.384;2023-01-05T07:43:26;10.90;99.90
65048;DHT22;52089;51.362;-2.384;2023-01-05T07:47:08;10.80;99.90
65048;DHT22;52089;51.362;-2.384;2023-01-05T07:50:50;10.90;99.90
65048;DHT22;52089;51.362;-2.384;2023-01-05T07:54:32;10.90;99.90
65048;DHT22;52089;51.362;-2.384;2023-01-05T07:58:14;10.90;99.90
65048;DHT22;52089;51.362;-2.384;2023-01-05T08:01:55;10.90;99.90
65048;DHT22;52089;51.362;-2.384;2023-01-05T08:05:38;10.90;99.90
65048;DHT22;52089;51.362;-2.384;2023-01-05T08:09:19;10.90;99.90
65048;DHT22;52089;51.362;-2.384;2023-01-05T08:13:20;10.90;99.90
65048;DHT22;52089;51.362;-2.384;2023-01-05T08:17:20;11.00;99.90
65048;DHT22;52089;51.362;-2.384;2023-01-05T08:21:02;11.00;99.90
65048;DHT22;52089;51.362;-2.384;2023-01-05T08:24:45;10.90;99.90
65048;DHT22;52089;51.362;-2.384;2023-01-05T08:28:26;10.90;99.90
65048;DHT22;52089;51.362;-2.384;2023-01-05T08:32:16;10.90;99.90
65048;DHT22;52089;51.362;-2.384;2023-01-05T08:35:57;10.90;99.90
65048;DHT22;52089;51.362;-2.384;2023-01-05T08:39:39;10.90;99.90
65048;DHT22;52089;51.362;-2.384;2023-01-05T08:43:21;10.90;99.90
65048;DHT22;52089;51.362;-2.384;2023-01-05T08:47:03;11.00;99.90
65048;DHT22;52089;51.362;-2.384;2023-01-05T08:50:44;11.10;99.90
65048;DHT22;52089;51.362;-2.384;2023-01-05T08:54:26;11.00;99.90
65048;DHT22;52089;51.362;-2.384;2023-01-05T08:58:08;11.10;99.90
65048;DHT22;52089;51.362;-2.384;2023-01-05T09:01:50;11.10;99.90
65048;DHT22;52089;51.362;-2.384;2023-01-05T09:05:32;11.10;99.90
65048;DHT22;52089;51.362;-2.384;2023-01-05T09:09:14;11.10;99.90
65048;DHT22;52089;51.362;-2.384;2023-01-05T09:12:56;11.10;99.90
65048;DHT22;52089;51.362;-2.384;2023-01-05T09:16:38;11.10;99.90
65048;DHT22;52089;51.362;-2.384;2023-01-05T09:20:40;11.20;99.90
65048;DHT22;52089;51.362;-2.384;2023-01-05T09:24:21;11.20;99.90
65048;DHT22;52089;51.362;-2.384;2023-01-05T09:28:03;11.20;99.90
65048;DHT22;52089;51.362;-2.384;2023-01-05T09:31:45;11.20;99.90
65048;DHT22;52089;51.362;-2.384;2023-01-05T09:35:27;11.30;99.90
65048;DHT22;52089;51.362;-2.384;2023-01-05T09:39:09;11.30;99.90
65048;DHT22;52089;51.362;-2.384;2023-01-05T09:42:52;11.30;99.90
65048;DHT22;52089;51.362;-2.384;2023-01-05T09:46:41;11.30;99.90
65048;DHT22;52089;51.362;-2.384;2023-01-05T09:50:26;11.30;99.90
65048;DHT22;52089;51.362;-2.384;2023-01-05T09:54:16;11.30;99.90
65048;DHT22;52089;51.362;-2.384;2023-01-05T09:58:05;11.30;99.90
65048;DHT22;52089;51.362;-2.384;2023-01-05T10:01:49;11.30;99.90
65048;DHT22;52089;51.362;-2.384;2023-01-05T10:05:33;11.30;99.90
65048;DHT22;52089;51.362;-2.384;2023-01-05T10:09:23;11.30;99.90
65048;DHT22;52089;51.362;-2.384;2023-01-05T10:13:08;11.30;99.90
65048;DHT22;52089;51.362;-2.384;2023-01-05T10:16:59;11.30;99.90
65048;DHT22;52089;51.362;-2.384;2023-01-05T10:25:28;11.40;99.90
65048;DHT22;52089;51.362;-2.384;2023-01-05T10:30:04;11.40;99.90
65048;DHT22;52089;51.362;-2.384;2023-01-05T10:33:45;11.40;99.90
65048;DHT22;52089;51.362;-2.384;2023-01-05T10:37:47;11.50;99.90
65048;DHT22;52089;51.362;-2.384;2023-01-05T10:45:28;11.60;99.90
65048;DHT22;52089;51.362;-2.384;2023-01-05T10:49:17;11.60;99.90
65048;DHT22;52089;51.362;-2.384;2023-01-05T10:53:11;11.60;99.90
65048;DHT22;52089;51.362;-2.384;2023-01-05T10:56:53;11.60;99.90
65048;DHT22;52089;51.362;-2.384;2023-01-05T11:00:40;11.60;99.90
65048;DHT22;52089;51.362;-2.384;2023-01-05T11:04:23;11.60;99.90
65048;DHT22;52089;51.362;-2.384;2023-01-05T11:08:24;11.60;99.90
65048;DHT22;52089;51.362;-2.384;2023-01-05T11:12:21;11.60;99.90
65048;DHT22;52089;51.362;-2.384;2023-01-05T11:16:26;11.60;99.90
65048;DHT22;52089;51.362;-2.384;2023-01-05T11:20:16;11.70;99.90
65048;DHT22;52089;51.362;-2.384;2023-01-05T11:23:58;11.80;99.90
65048;DHT22;52089;51.362;-2.384;2023-01-05T11:27:40;11.80;99.90
65048;DHT22;52089;51.362;-2.384;2023-01-05T11:31:22;11.90;99.90
65048;DHT22;52089;51.362;-2.384;2023-01-05T11:35:32;11.90;99.90
65048;DHT22;52089;51.362;-2.384;2023-01-05T11:39:24;12.00;99.90
65048;DHT22;52089;51.362;-2.384;2023-01-05T11:43:10;12.10;99.90
65048;DHT22;52089;51.362;-2.384;2023-01-05T11:46:53;12.10;99.90
65048;DHT22;52089;51.362;-2.384;2023-01-05T11:50:47;12.20;99.90
65048;DHT22;52089;51.362;-2.384;2023-01-05T12:23:08;12.60;99.90
65048;DHT22;52089;51.362;-2.384;2023-01-05T12:30:54;12.80;99.90
65048;DHT22;52089;51.362;-2.384;2023-01-05T12:39:20;12.90;99.90
65048;DHT22;52089;51.362;-2.384;2023-01-05T12:59:30;14.20;99.90
65048;DHT22;52089;51.362;-2.384;2023-01-05T13:03:20;14.30;99.90
65048;DHT22;52089;51.362;-2.384;2023-01-05T13:07:10;14.10;99.90
65048;DHT22;52089;51.362;-2.384;2023-01-05T13:15:17;13.80;99.90
65048;DHT22;52089;51.362;-2.384;2023-01-05T13:19:30;13.60;99.90
65048;DHT22;52089;51.362;-2.384;2023-01-05T13:23:25;13.60;99.90
65048;DHT22;52089;51.362;-2.384;2023-01-05T13:27:17;13.50;99.90
65048;DHT22;52089;51.362;-2.384;2023-01-05T13:43:12;13.00;99.90
65048;DHT22;52089;51.362;-2.384;2023-01-05T13:47:14;12.90;99.90
65048;DHT22;52089;51.362;-2.384;2023-01-05T13:55:29;12.90;99.90
65048;DHT22;52089;51.362;-2.384;2023-01-05T13:59:23;13.20;99.90
65048;DHT22;52089;51.362;-2.384;2023-01-05T14:03:24;13.80;99.90
65048;DHT22;52089;51.362;-2.384;2023-01-05T14:07:15;14.10;99.90
65048;DHT22;52089;51.362;-2.384;2023-01-05T14:11:15;14.20;99.90
65048;DHT22;52089;51.362;-2.384;2023-01-05T14:19:11;13.70;99.90
65048;DHT22;52089;51.362;-2.384;2023-01-05T14:22:53;13.50;99.90
65048;DHT22;52089;51.362;-2.384;2023-01-05T14:27:11;13.30;99.90
65048;DHT22;52089;51.362;-2.384;2023-01-05T14:39:01;13.00;99.90
65048;DHT22;52089;51.362;-2.384;2023-01-05T14:42:46;13.00;99.90
65048;DHT22;52089;51.362;-2.384;2023-01-05T14:46:47;13.00;99.90
65048;DHT22;52089;51.362;-2.384;2023-01-05T14:50:40;13.10;99.90
65048;DHT22;52089;51.362;-2.384;2023-01-05T15:02:20;13.10;99.90
65048;DHT22;52089;51.362;-2.384;2023-01-05T15:06:07;13.00;99.90
65048;DHT22;52089;51.362;-2.384;2023-01-05T15:10:04;13.00;99.90
65048;DHT22;52089;51.362;-2.384;2023-01-05T15:30:36;12.70;99.90
65048;DHT22;52089;51.362;-2.384;2023-01-05T15:38:45;12.50;99.90
65048;DHT22;52089;51.362;-2.384;2023-01-05T15:42:39;12.40;99.90
65048;DHT22;52089;51.362;-2.384;2023-01-05T15:46:28;12.30;99.90
65048;DHT22;52089;51.362;-2.384;2023-01-05T15:50:25;12.20;99.90
65048;DHT22;52089;51.362;-2.384;2023-01-05T15:54:20;12.20;99.90
65048;DHT22;52089;51.362;-2.384;2023-01-05T15:58:11;12.10;99.90
65048;DHT22;52089;51.362;-2.384;2023-01-05T16:01:54;12.10;99.90
65048;DHT22;52089;51.362;-2.384;2023-01-05T16:05:35;12.00;99.90
65048;DHT22;52089;51.362;-2.384;2023-01-05T16:13:17;11.90;99.90
65048;DHT22;52089;51.362;-2.384;2023-01-05T16:17:09;11.80;99.90
65048;DHT22;52089;51.362;-2.384;2023-01-05T16:20:54;11.80;99.90
65048;DHT22;52089;51.362;-2.384;2023-01-05T16:28:41;11.60;99.90
65048;DHT22;52089;51.362;-2.384;2023-01-05T16:32:34;11.60;99.90
65048;DHT22;52089;51.362;-2.384;2023-01-05T16:36:21;11.60;99.90
65048;DHT22;52089;51.362;-2.384;2023-01-05T16:40:03;11.60;99.90
65048;DHT22;52089;51.362;-2.384;2023-01-05T16:43:56;11.50;99.90
65048;DHT22;52089;51.362;-2.384;2023-01-05T16:47:42;11.50;99.90
65048;DHT22;52089;51.362;-2.384;2023-01-05T16:55:30;11.50;99.90
65048;DHT22;52089;51.362;-2.384;2023-01-05T17:03:27;11.50;99.90
65048;DHT22;52089;51.362;-2.384;2023-01-05T17:07:10;11.50;99.90
65048;DHT22;52089;51.362;-2.384;2023-01-05T17:10:57;11.50;99.90
65048;DHT22;52089;51.362;-2.384;2023-01-05T17:14:39;11.50;99.90
65048;DHT22;52089;51.362;-2.384;2023-01-05T17:18:24;11.50;99.90
65048;DHT22;52089;51.362;-2.384;2023-01-05T17:22:06;11.50;99.90
65048;DHT22;52089;51.362;-2.384;2023-01-05T17:25:56;11.50;99.90
65048;DHT22;52089;51.362;-2.384;2023-01-05T17:29:39;11.50;99.90
65048;DHT22;52089;51.362;-2.384;2023-01-05T17:33:22;11.50;99.90
65048;DHT22;52089;51.362;-2.384;2023-01-05T17:37:04;11.50;99.90
65048;DHT22;52089;51.362;-2.384;2023-01-05T17:40:46;11.40;99.90
65048;DHT22;52089;51.362;-2.384;2023-01-05T17:44:28;11.40;99.90
65048;DHT22;52089;51.362;-2.384;2023-01-05T17:48:11;11.40;99.90
65048;DHT22;52089;51.362;-2.384;2023-01-05T17:51:55;11.40;99.90
65048;DHT22;52089;51.362;-2.384;2023-01-05T17:55:37;11.30;99.90
65048;DHT22;52089;51.362;-2.384;2023-01-05T17:59:19;11.30;99.90
65048;DHT22;52089;51.362;-2.384;2023-01-05T18:03:01;11.30;99.90
65048;DHT22;52089;51.362;-2.384;2023-01-05T18:06:43;11.30;99.90
65048;DHT22;52089;51.362;-2.384;2023-01-05T18:10:24;11.30;99.90
65048;DHT22;52089;51.362;-2.384;2023-01-05T18:14:09;11.30;99.90
65048;DHT22;52089;51.362;-2.384;2023-01-05T18:17:55;11.30;99.90
65048;DHT22;52089;51.362;-2.384;2023-01-05T18:21:37;11.30;99.90
65048;DHT22;52089;51.362;-2.384;2023-01-05T18:25:19;11.20;99.90
65048;DHT22;52089;51.362;-2.384;2023-01-05T18:29:01;11.30;99.90
65048;DHT22;52089;51.362;-2.384;2023-01-05T18:32:44;11.30;99.90
65048;DHT22;52089;51.362;-2.384;2023-01-05T18:36:26;11.40;99.90
65048;DHT22;52089;51.362;-2.384;2023-01-05T18:40:09;11.30;99.90
65048;DHT22;52089;51.362;-2.384;2023-01-05T18:43:51;11.30;99.90
65048;DHT22;52089;51.362;-2.384;2023-01-05T18:47:34;11.40;99.90
65048;DHT22;52089;51.362;-2.384;2023-01-05T18:51:16;11.40;99.90
65048;DHT22;52089;51.362;-2.384;2023-01-05T18:54:58;11.40;99.90
65048;DHT22;52089;51.362;-2.384;2023-01-05T18:58:40;11.40;99.90
65048;DHT22;52089;51.362;-2.384;2023-01-05T19:02:22;11.40;99.90
65048;DHT22;52089;51.362;-2.384;2023-01-05T19:06:06;11.40;99.90
65048;DHT22;52089;51.362;-2.384;2023-01-05T19:09:48;11.40;99.90
65048;DHT22;52089;51.362;-2.384;2023-01-05T19:13:30;11.40;99.90
65048;DHT22;52089;51.362;-2.384;2023-01-05T19:17:11;11.40;99.90
65048;DHT22;52089;51.362;-2.384;2023-01-05T19:20:57;11.40;99.90
65048;DHT22;52089;51.362;-2.384;2023-01-05T19:24:39;11.30;99.90
65048;DHT22;52089;51.362;-2.384;2023-01-05T19:28:21;11.30;99.90
65048;DHT22;52089;51.362;-2.384;2023-01-05T19:32:03;11.30;99.90
65048;DHT22;52089;51.362;-2.384;2023-01-05T19:35:45;11.30;99.90
65048;DHT22;52089;51.362;-2.384;2023-01-05T19:39:27;11.40;99.90
65048;DHT22;52089;51.362;-2.384;2023-01-05T19:43:08;11.30;99.90
65048;DHT22;52089;51.362;-2.384;2023-01-05T19:46:50;11.30;99.90
65048;DHT22;52089;51.362;-2.384;2023-01-05T19:50:35;11.30;99.90
65048;DHT22;52089;51.362;-2.384;2023-01-05T19:54:17;11.40;99.90
65048;DHT22;52089;51.362;-2.384;2023-01-05T19:58:00;11.40;99.90
65048;DHT22;52089;51.362;-2.384;2023-01-05T20:01:43;11.40;99.90
65048;DHT22;52089;51.362;-2.384;2023-01-05T20:05:25;11.30;99.90
65048;DHT22;52089;51.362;-2.384;2023-01-05T20:09:11;11.30;99.90
65048;DHT22;52089;51.362;-2.384;2023-01-05T20:12:53;11.20;99.90
65048;DHT22;52089;51.362;-2.384;2023-01-05T20:16:35;11.20;99.90
65048;DHT22;52089;51.362;-2.384;2023-01-05T20:20:17;11.20;99.90
65048;DHT22;52089;51.362;-2.384;2023-01-05T20:24:03;11.20;99.90
65048;DHT22;52089;51.362;-2.384;2023-01-05T20:27:47;11.20;99.90
65048;DHT22;52089;51.362;-2.384;2023-01-05T20:31:33;11.20;99.90
65048;DHT22;52089;51.362;-2.384;2023-01-05T20:35:15;11.20;99.90
65048;DHT22;52089;51.362;-2.384;2023-01-05T20:38:57;11.20;99.90
65048;DHT22;52089;51.362;-2.384;2023-01-05T20:42:40;11.20;99.90
65048;DHT22;52089;51.362;-2.384;2023-01-05T20:46:25;11.10;99.90
65048;DHT22;52089;51.362;-2.384;2023-01-05T20:50:07;11.10;99.90
65048;DHT22;52089;51.362;-2.384;2023-01-05T20:53:50;11.10;99.90
65048;DHT22;52089;51.362;-2.384;2023-01-05T20:57:32;11.10;99.90
65048;DHT22;52089;51.362;-2.384;2023-01-05T21:01:14;11.20;99.90
65048;DHT22;52089;51.362;-2.384;2023-01-05T21:04:57;11.10;99.90
65048;DHT22;52089;51.362;-2.384;2023-01-05T21:08:39;11.10;99.90
65048;DHT22;52089;51.362;-2.384;2023-01-05T21:12:21;11.10;99.90
65048;DHT22;52089;51.362;-2.384;2023-01-05T21:16:04;11.20;99.90
65048;DHT22;52089;51.362;-2.384;2023-01-05T21:19:47;11.20;99.90
65048;DHT22;52089;51.362;-2.384;2023-01-05T21:23:28;11.10;99.90
65048;DHT22;52089;51.362;-2.384;2023-01-05T21:27:10;11.10;99.90
65048;DHT22;52089;51.362;-2.384;2023-01-05T21:30:52;11.10;99.90
65048;DHT22;52089;51.362;-2.384;2023-01-05T21:34:34;11.10;99.90
65048;DHT22;52089;51.362;-2.384;2023-01-05T21:38:15;11.10;99.90
65048;DHT22;52089;51.362;-2.384;2023-01-05T21:41:57;11.10;99.90
65048;DHT22;52089;51.362;-2.384;2023-01-05T21:45:59;11.10;99.90
65048;DHT22;52089;51.362;-2.384;2023-01-05T21:49:44;11.10;99.90
65048;DHT22;52089;51.362;-2.384;2023-01-05T21:53:26;11.10;99.90
65048;DHT22;52089;51.362;-2.384;2023-01-05T21:57:26;11.10;99.90
65048;DHT22;52089;51.362;-2.384;2023-01-05T22:01:08;11.00;99.90
65048;DHT22;52089;51.362;-2.384;2023-01-05T22:04:50;11.00;99.90
65048;DHT22;52089;51.362;-2.384;2023-01-05T22:08:31;11.00;99.90
65048;DHT22;52089;51.362;-2.384;2023-01-05T22:12:13;11.00;99.90
65048;DHT22;52089;51.362;-2.384;2023-01-05T22:15:55;11.00;99.90
65048;DHT22;52089;51.362;-2.384;2023-01-05T22:19:37;11.00;99.90
65048;DHT22;52089;51.362;-2.384;2023-01-05T22:23:19;10.90;99.90
65048;DHT22;52089;51.362;-2.384;2023-01-05T22:27:01;10.90;99.90
65048;DHT22;52089;51.362;-2.384;2023-01-05T22:30:43;10.90;99.90
65048;DHT22;52089;51.362;-2.384;2023-01-05T22:34:25;10.90;99.90
65048;DHT22;52089;51.362;-2.384;2023-01-05T22:38:06;10.90;99.90
65048;DHT22;52089;51.362;-2.384;2023-01-05T22:41:49;10.90;99.90
65048;DHT22;52089;51.362;-2.384;2023-01-05T22:45:31;11.00;99.90
65048;DHT22;52089;51.362;-2.384;2023-01-05T22:49:13;11.00;99.90
65048;DHT22;52089;51.362;-2.384;2023-01-05T22:52:57;11.00;99.90
65048;DHT22;52089;51.362;-2.384;2023-01-05T22:56:38;11.00;99.90
65048;DHT22;52089;51.362;-2.384;2023-01-05T23:00:21;11.10;99.90
65048;DHT22;52089;51.362;-2.384;2023-01-05T23:04:05;11.10;99.90
65048;DHT22;52089;51.362;-2.384;2023-01-05T23:07:47;11.10;99.90
65048;DHT22;52089;51.362;-2.384;2023-01-05T23:11:34;11.10;99.90
65048;DHT22;52089;51.362;-2.384;2023-01-05T23:15:16;11.00;99.90
65048;DHT22;52089;51.362;-2.384;2023-01-05T23:18:58;11.00;99.90
65048;DHT22;52089;51.362;-2.384;2023-01-05T23:22:39;10.90;99.90
65048;DHT22;52089;51.362;-2.384;2023-01-05T23:26:23;10.60;99.90
65048;DHT22;52089;51.362;-2.384;2023-01-05T23:30:06;10.20;99.90
65048;DHT22;52089;51.362;-2.384;2023-01-05T23:33:48;9.80;99.90
65048;DHT22;52089;51.362;-2.384;2023-01-05T23:37:30;9.50;99.90
65048;DHT22;52089;51.362;-2.384;2023-01-05T23:41:13;9.30;99.90
65048;DHT22;52089;51.362;-2.384;2023-01-05T23:44:55;9.10;99.90
65048;DHT22;52089;51.362;-2.384;2023-01-05T23:48:37;8.90;99.90
65048;DHT22;52089;51.362;-2.384;2023-01-05T23:52:19;8.80;99.90
65048;DHT22;52089;51.362;-2.384;2023-01-05T23:56:22;8.70;99.90
